sensor_id;sensor_type;location;lat;lon;timestamp;pressure;altitude;pressure_sealevel;temperature;humidity
48624;BME280;34422;45.802;16.114;2023-04-06T00:00:33;100635.47;;;3.09;50.37
48624;BME280;34422;45.802;16.114;2023-04-06T00:03:00;100627.97;;;3.12;50.14
48624;BME280;34422;45.802;16.114;2023-04-06T00:05:27;100638.31;;;3.15;50.08
48624;BME280;34422;45.802;16.114;2023-04-06T00:07:57;100629.66;;;3.13;50.00
48624;BME280;34422;45.802;16.114;2023-04-06T00:10:25;100624.59;;;3.10;50.00
48624;BME280;34422;45.802;16.114;2023-04-06T00:12:53;100632.63;;;3.10;50.07
48624;BME280;34422;45.802;16.114;2023-04-06T00:15:20;100626.59;;;3.08;50.12
48624;BME280;34422;45.802;16.114;2023-04-06T00:17:47;100629.13;;;3.10;50.25
48624;BME280;34422;45.802;16.114;2023-04-06T00:20:15;100627.44;;;3.09;50.06
48624;BME280;34422;45.802;16.114;2023-04-06T00:22:42;100626.22;;;3.03;50.24
48624;BME280;34422;45.802;16.114;2023-04-06T00:25:09;100626.53;;;3.00;50.46
48624;BME280;34422;45.802;16.114;2023-04-06T00:27:38;100616.06;;;2.89;50.65
48624;BME280;34422;45.802;16.114;2023-04-06T00:30:05;100622.78;;;2.93;50.39
48624;BME280;34422;45.802;16.114;2023-04-06T00:32:32;100621.81;;;2.94;50.23
48624;BME280;34422;45.802;16.114;2023-04-06T00:34:59;100622.19;;;2.99;50.18
48624;BME280;34422;45.802;16.114;2023-04-06T00:37:25;100622.78;;;2.93;50.45
48624;BME280;34422;45.802;16.114;2023-04-06T00:39:52;100626.47;;;2.92;50.44
48624;BME280;34422;45.802;16.114;2023-04-06T00:42:22;100619.13;;;2.94;50.35
48624;BME280;34422;45.802;16.114;2023-04-06T00:44:57;100622.78;;;2.93;50.51
48624;BME280;34422;45.802;16.114;2023-04-06T00:47:25;100616.06;;;2.89;50.81
48624;BME280;34422;45.802;16.114;2023-04-06T00:49:55;100620.06;;;2.85;51.20
48624;BME280;34422;45.802;16.114;2023-04-06T00:52:22;100612.72;;;2.87;51.17
48624;BME280;34422;45.802;16.114;2023-04-06T00:54:49;100615.97;;;2.73;51.50
48624;BME280;34422;45.802;16.114;2023-04-06T00:57:17;100617.31;;;2.77;51.22
48624;BME280;34422;45.802;16.114;2023-04-06T00:59:44;100619.28;;;2.75;51.63
48624;BME280;34422;45.802;16.114;2023-04-06T01:02:11;100612.59;;;2.71;51.64
48624;BME280;34422;45.802;16.114;2023-04-06T01:04:39;100614.28;;;2.72;51.55
48624;BME280;34422;45.802;16.114;2023-04-06T01:07:06;100609.78;;;2.72;51.61
48624;BME280;34422;45.802;16.114;2023-04-06T01:09:32;100609.78;;;2.72;51.54
48624;BME280;34422;45.802;16.114;2023-04-06T01:11:59;100617.25;;;2.69;51.74
48624;BME280;34422;45.802;16.114;2023-04-06T01:14:27;100612.50;;;2.63;52.03
48624;BME280;34422;45.802;16.114;2023-04-06T01:16:54;100607.50;;;2.60;52.05
48624;BME280;34422;45.802;16.114;2023-04-06T01:19:21;100611.75;;;2.53;52.59
48624;BME280;34422;45.802;16.114;2023-04-06T01:21:48;100612.53;;;2.45;53.49
48624;BME280;34422;45.802;16.114;2023-04-06T01:24:16;100605.25;;;2.37;53.17
48624;BME280;34422;45.802;16.114;2023-04-06T01:26:44;100611.81;;;2.25;54.52
48624;BME280;34422;45.802;16.114;2023-04-06T01:29:11;100597.91;;;2.04;56.34
48624;BME280;34422;45.802;16.114;2023-04-06T01:31:39;100608.31;;;1.97;55.77
48624;BME280;34422;45.802;16.114;2023-04-06T01:34:06;100606.69;;;1.87;56.20
48624;BME280;34422;45.802;16.114;2023-04-06T01:36:33;100598.91;;;1.75;57.28
48624;BME280;34422;45.802;16.114;2023-04-06T01:38:59;100602.19;;;1.60;57.72
48624;BME280;34422;45.802;16.114;2023-04-06T01:41:26;100600.69;;;1.48;58.36
48624;BME280;34422;45.802;16.114;2023-04-06T01:43:53;100599.84;;;1.47;59.37
48624;BME280;34422;45.802;16.114;2023-04-06T01:46:21;100599.44;;;1.42;60.08
48624;BME280;34422;45.802;16.114;2023-04-06T01:48:47;100606.78;;;1.30;60.33
48624;BME280;34422;45.802;16.114;2023-04-06T01:51:14;100598.50;;;1.24;61.34
48624;BME280;34422;45.802;16.114;2023-04-06T01:53:41;100600.22;;;1.15;63.03
48624;BME280;34422;45.802;16.114;2023-04-06T01:56:08;100596.00;;;1.13;62.49
48624;BME280;34422;45.802;16.114;2023-04-06T01:58:35;100603.34;;;0.91;63.11
48624;BME280;34422;45.802;16.114;2023-04-06T02:01:02;100594.69;;;0.80;63.93
48624;BME280;34422;45.802;16.114;2023-04-06T02:03:29;100592.72;;;0.72;65.76
48624;BME280;34422;45.802;16.114;2023-04-06T02:05:56;100594.13;;;0.66;66.37
48624;BME280;34422;45.802;16.114;2023-04-06T02:08:22;100593.13;;;0.58;66.75
48624;BME280;34422;45.802;16.114;2023-04-06T02:10:49;100583.19;;;0.50;68.21
48624;BME280;34422;45.802;16.114;2023-04-06T02:13:16;100582.91;;;0.44;69.60
48624;BME280;34422;45.802;16.114;2023-04-06T02:15:43;100585.72;;;0.32;69.64
48624;BME280;34422;45.802;16.114;2023-04-06T02:18:09;100580.97;;;0.26;70.64
48624;BME280;34422;45.802;16.114;2023-04-06T02:20:36;100575.06;;;0.13;72.01
48624;BME280;34422;45.802;16.114;2023-04-06T02:23:03;100587.22;;;0.06;73.22
48624;BME280;34422;45.802;16.114;2023-04-06T02:25:30;100580.63;;;0.00;73.61
48624;BME280;34422;45.802;16.114;2023-04-06T02:27:56;100582.28;;;-0.08;74.03
48624;BME280;34422;45.802;16.114;2023-04-06T02:30:23;100575.56;;;-0.12;74.68
48624;BME280;34422;45.802;16.114;2023-04-06T02:32:50;100586.75;;;-0.18;75.29
48624;BME280;34422;45.802;16.114;2023-04-06T02:35:17;100583.66;;;-0.23;76.03
48624;BME280;34422;45.802;16.114;2023-04-06T02:37:43;100585.34;;;-0.22;76.56
48624;BME280;34422;45.802;16.114;2023-04-06T02:40:10;100578.59;;;-0.26;77.21
48624;BME280;34422;45.802;16.114;2023-04-06T02:42:37;100578.88;;;-0.29;77.62
48624;BME280;34422;45.802;16.114;2023-04-06T02:45:04;100582.22;;;-0.37;78.35
48624;BME280;34422;45.802;16.114;2023-04-06T02:47:32;100572.97;;;-0.43;79.09
48624;BME280;34422;45.802;16.114;2023-04-06T02:49:59;100575.19;;;-0.48;80.78
48624;BME280;34422;45.802;16.114;2023-04-06T02:52:26;100571.22;;;-0.53;81.87
48624;BME280;34422;45.802;16.114;2023-04-06T02:54:53;100569.97;;;-0.59;83.63
48624;BME280;34422;45.802;16.114;2023-04-06T02:57:19;100582.66;;;-0.62;84.66
48624;BME280;34422;45.802;16.114;2023-04-06T02:59:46;100572.63;;;-0.59;90.15
48624;BME280;34422;45.802;16.114;2023-04-06T03:02:13;100578.06;;;-0.60;90.59
48624;BME280;34422;45.802;16.114;2023-04-06T03:04:40;100569.25;;;-0.61;90.94
48624;BME280;34422;45.802;16.114;2023-04-06T03:07:07;100572.63;;;-0.59;92.08
48624;BME280;34422;45.802;16.114;2023-04-06T03:09:36;100572.63;;;-0.59;92.55
48624;BME280;34422;45.802;16.114;2023-04-06T03:12:03;100575.88;;;-0.55;92.04
48624;BME280;34422;45.802;16.114;2023-04-06T03:14:30;100567.56;;;-0.62;93.59
48624;BME280;34422;45.802;16.114;2023-04-06T03:16:57;100586.44;;;-0.65;94.66
48624;BME280;34422;45.802;16.114;2023-04-06T03:19:24;100588.38;;;-0.67;94.01
48624;BME280;34422;45.802;16.114;2023-04-06T03:21:51;100584.03;;;-0.68;93.95
48624;BME280;34422;45.802;16.114;2023-04-06T03:24:17;100589.34;;;-0.68;94.31
48624;BME280;34422;45.802;16.114;2023-04-06T03:26:45;100584.31;;;-0.71;95.19
48624;BME280;34422;45.802;16.114;2023-04-06T03:29:11;100584.44;;;-0.73;96.84
48624;BME280;34422;45.802;16.114;2023-04-06T03:31:38;100586.13;;;-0.72;97.04
48624;BME280;34422;45.802;16.114;2023-04-06T03:34:05;100586.84;;;-0.69;97.35
48624;BME280;34422;45.802;16.114;2023-04-06T03:36:33;100582.63;;;-0.72;97.55
48624;BME280;34422;45.802;16.114;2023-04-06T03:39:00;100589.09;;;-0.65;98.20
48624;BME280;34422;45.802;16.114;2023-04-06T03:41:27;100591.94;;;-0.57;97.80
48624;BME280;34422;45.802;16.114;2023-04-06T03:43:53;100597.38;;;-0.58;98.25
48624;BME280;34422;45.802;16.114;2023-04-06T03:46:20;100587.13;;;-0.63;98.74
48624;BME280;34422;45.802;16.114;2023-04-06T03:48:48;100594.16;;;-0.62;98.88
48624;BME280;34422;45.802;16.114;2023-04-06T03:51:15;100599.28;;;-0.70;99.35
48624;BME280;34422;45.802;16.114;2023-04-06T03:53:42;100597.28;;;-0.78;100.00
48624;BME280;34422;45.802;16.114;2023-04-06T03:56:09;100600.34;;;-0.82;99.71
48624;BME280;34422;45.802;16.114;2023-04-06T03:58:35;100601.97;;;-0.91;100.00
48624;BME280;34422;45.802;16.114;2023-04-06T04:01:02;100601.38;;;-0.94;100.00
48624;BME280;34422;45.802;16.114;2023-04-06T04:03:29;100600.69;;;-0.96;100.00
48624;BME280;34422;45.802;16.114;2023-04-06T04:05:56;100601.38;;;-0.94;100.00
48624;BME280;34422;45.802;16.114;2023-04-06T04:08:24;100604.75;;;-0.92;100.00
48624;BME280;34422;45.802;16.114;2023-04-06T04:10:50;100606.88;;;-0.86;100.00
48624;BME280;34422;45.802;16.114;2023-04-06T04:13:17;100603.50;;;-0.88;100.00
48624;BME280;34422;45.802;16.114;2023-04-06T04:15:45;100610.19;;;-0.94;100.00
48624;BME280;34422;45.802;16.114;2023-04-06T04:18:13;100607.94;;;-0.98;100.00
48624;BME280;34422;45.802;16.114;2023-04-06T04:20:40;100606.97;;;-0.97;100.00
48624;BME280;34422;45.802;16.114;2023-04-06T04:23:07;100609.09;;;-0.91;100.00
48624;BME280;34422;45.802;16.114;2023-04-06T04:25:34;100614.41;;;-0.91;100.00
48624;BME280;34422;45.802;16.114;2023-04-06T04:28:01;100614.66;;;-0.94;100.00
48624;BME280;34422;45.802;16.114;2023-04-06T04:30:28;100608.84;;;-0.88;100.00
48624;BME280;34422;45.802;16.114;2023-04-06T04:32:55;100610.78;;;-0.90;100.00
48624;BME280;34422;45.802;16.114;2023-04-06T04:35:22;100627.88;;;-0.83;100.00
48624;BME280;34422;45.802;16.114;2023-04-06T04:37:49;100619.63;;;-0.80;100.00
48624;BME280;34422;45.802;16.114;2023-04-06T04:40:16;100617.56;;;-0.77;100.00
48624;BME280;34422;45.802;16.114;2023-04-06T04:42:43;100621.19;;;-0.78;100.00
48624;BME280;34422;45.802;16.114;2023-04-06T04:45:10;100616.97;;;-0.80;100.00
48624;BME280;34422;45.802;16.114;2023-04-06T04:47:36;100615.56;;;-0.84;100.00
48624;BME280;34422;45.802;16.114;2023-04-06T04:50:04;100617.94;;;-0.81;100.00
48624;BME280;34422;45.802;16.114;2023-04-06T04:52:31;100626.75;;;-0.81;100.00
48624;BME280;34422;45.802;16.114;2023-04-06T04:54:57;100625.34;;;-0.85;100.00
48624;BME280;34422;45.802;16.114;2023-04-06T04:57:24;100622.56;;;-0.83;100.00
48624;BME280;34422;45.802;16.114;2023-04-06T04:59:51;100622.56;;;-0.83;100.00
48624;BME280;34422;45.802;16.114;2023-04-06T05:02:18;100625.06;;;-0.82;100.00
48624;BME280;34422;45.802;16.114;2023-04-06T05:04:45;100622.28;;;-0.80;100.00
48624;BME280;34422;45.802;16.114;2023-04-06T05:07:12;100626.25;;;-0.75;100.00
48624;BME280;34422;45.802;16.114;2023-04-06T05:09:38;100623.47;;;-0.73;100.00
48624;BME280;34422;45.802;16.114;2023-04-06T05:12:05;100630.38;;;-0.61;100.00
48624;BME280;34422;45.802;16.114;2023-04-06T05:14:32;100627.88;;;-0.53;100.00
48624;BME280;34422;45.802;16.114;2023-04-06T05:16:59;100624.97;;;-0.50;100.00
48624;BME280;34422;45.802;16.114;2023-04-06T05:19:26;100624.31;;;-0.42;100.00
48624;BME280;34422;45.802;16.114;2023-04-06T05:21:52;100623.78;;;-0.36;100.00
48624;BME280;34422;45.802;16.114;2023-04-06T05:24:19;100623.41;;;-0.22;100.00
48624;BME280;34422;45.802;16.114;2023-04-06T05:26:46;100621.75;;;-0.13;100.00
48624;BME280;34422;45.802;16.114;2023-04-06T05:29:13;100618.16;;;-0.03;100.00
48624;BME280;34422;45.802;16.114;2023-04-06T05:31:40;100613.97;;;0.14;100.00
48624;BME280;34422;45.802;16.114;2023-04-06T05:34:07;100619.59;;;0.30;100.00
48624;BME280;34422;45.802;16.114;2023-04-06T05:36:35;100628.88;;;0.46;100.00
48624;BME280;34422;45.802;16.114;2023-04-06T05:39:02;100624.13;;;0.59;100.00
48624;BME280;34422;45.802;16.114;2023-04-06T05:41:29;100618.53;;;0.81;100.00
48624;BME280;34422;45.802;16.114;2023-04-06T05:43:56;100623.94;;;0.99;98.82
48624;BME280;34422;45.802;16.114;2023-04-06T05:46:23;100625.16;;;1.24;97.36
48624;BME280;34422;45.802;16.114;2023-04-06T05:48:49;100628.03;;;1.59;95.07
48624;BME280;34422;45.802;16.114;2023-04-06T05:51:16;100618.16;;;1.97;86.64
48624;BME280;34422;45.802;16.114;2023-04-06T05:53:43;100627.91;;;2.33;83.58
48624;BME280;34422;45.802;16.114;2023-04-06T05:56:10;100624.72;;;2.47;78.42
48624;BME280;34422;45.802;16.114;2023-04-06T05:58:36;100619.72;;;2.88;73.60
48624;BME280;34422;45.802;16.114;2023-04-06T06:01:03;100633.94;;;3.06;73.31
48624;BME280;34422;45.802;16.114;2023-04-06T06:03:31;100636.03;;;3.20;78.68
48624;BME280;34422;45.802;16.114;2023-04-06T06:06:02;100632.94;;;3.59;78.82
48624;BME280;34422;45.802;16.114;2023-04-06T06:08:29;100631.53;;;3.47;77.40
48624;BME280;34422;45.802;16.114;2023-04-06T06:10:56;100637.97;;;3.62;78.29
48624;BME280;34422;45.802;16.114;2023-04-06T06:13:23;100634.44;;;3.87;73.63
48624;BME280;34422;45.802;16.114;2023-04-06T06:15:50;100636.50;;;4.60;72.66
48624;BME280;34422;45.802;16.114;2023-04-06T06:18:17;100637.03;;;4.63;72.27
48624;BME280;34422;45.802;16.114;2023-04-06T06:20:43;100639.41;;;4.91;67.13
48624;BME280;34422;45.802;16.114;2023-04-06T06:23:10;100638.06;;;5.19;65.65
48624;BME280;34422;45.802;16.114;2023-04-06T06:25:37;100639.38;;;5.23;63.73
48624;BME280;34422;45.802;16.114;2023-04-06T06:28:04;100640.84;;;5.50;63.80
48624;BME280;34422;45.802;16.114;2023-04-06T06:30:31;100631.81;;;6.06;52.94
48624;BME280;34422;45.802;16.114;2023-04-06T06:32:58;100639.97;;;6.98;51.95
48624;BME280;34422;45.802;16.114;2023-04-06T06:35:24;100643.63;;;6.59;50.44
48624;BME280;34422;45.802;16.114;2023-04-06T06:37:51;100639.47;;;6.80;48.41
48624;BME280;34422;45.802;16.114;2023-04-06T06:40:18;100633.94;;;6.73;48.72
48624;BME280;34422;45.802;16.114;2023-04-06T06:42:45;100637.66;;;7.18;49.05
48624;BME280;34422;45.802;16.114;2023-04-06T06:45:11;100641.63;;;7.07;47.09
48624;BME280;34422;45.802;16.114;2023-04-06T06:47:38;100636.22;;;7.44;45.88
48624;BME280;34422;45.802;16.114;2023-04-06T06:50:06;100636.72;;;7.63;44.07
48624;BME280;34422;45.802;16.114;2023-04-06T06:52:33;100628.59;;;8.07;42.52
48624;BME280;34422;45.802;16.114;2023-04-06T06:55:00;100623.53;;;8.48;41.94
48624;BME280;34422;45.802;16.114;2023-04-06T06:57:27;100632.56;;;8.55;40.02
48624;BME280;34422;45.802;16.114;2023-04-06T06:59:54;100634.44;;;8.40;40.18
48624;BME280;34422;45.802;16.114;2023-04-06T07:02:21;100634.44;;;8.25;40.04
48624;BME280;34422;45.802;16.114;2023-04-06T07:04:48;100633.06;;;8.44;40.06
48624;BME280;34422;45.802;16.114;2023-04-06T07:07:16;100632.03;;;8.45;40.27
48624;BME280;34422;45.802;16.114;2023-04-06T07:09:42;100628.22;;;8.97;38.98
48624;BME280;34422;45.802;16.114;2023-04-06T07:12:09;100631.38;;;9.00;38.99
48624;BME280;34422;45.802;16.114;2023-04-06T07:14:36;100639.94;;;8.46;39.40
48624;BME280;34422;45.802;16.114;2023-04-06T07:17:03;100634.09;;;8.43;39.41
48624;BME280;34422;45.802;16.114;2023-04-06T07:19:30;100634.75;;;8.66;39.24
48624;BME280;34422;45.802;16.114;2023-04-06T07:21:57;100638.94;;;8.33;39.39
48624;BME280;34422;45.802;16.114;2023-04-06T07:24:24;100640.31;;;8.43;39.29
48624;BME280;34422;45.802;16.114;2023-04-06T07:26:50;100632.84;;;8.81;39.50
48624;BME280;34422;45.802;16.114;2023-04-06T07:29:17;100632.06;;;9.09;38.52
48624;BME280;34422;45.802;16.114;2023-04-06T07:31:44;100628.97;;;8.69;38.70
48624;BME280;34422;45.802;16.114;2023-04-06T07:34:11;100632.22;;;9.01;37.55
48624;BME280;34422;45.802;16.114;2023-04-06T07:36:38;100629.53;;;9.91;37.80
48624;BME280;34422;45.802;16.114;2023-04-06T07:39:05;100633.19;;;9.77;35.91
48624;BME280;34422;45.802;16.114;2023-04-06T07:41:33;100624.47;;;9.47;36.81
48624;BME280;34422;45.802;16.114;2023-04-06T07:44:00;100625.56;;;10.21;36.35
48624;BME280;34422;45.802;16.114;2023-04-06T07:46:27;100627.25;;;11.36;34.03
48624;BME280;34422;45.802;16.114;2023-04-06T07:48:53;100624.06;;;10.73;35.16
48624;BME280;34422;45.802;16.114;2023-04-06T07:51:21;100621.63;;;9.89;35.19
48624;BME280;34422;45.802;16.114;2023-04-06T07:53:48;100618.97;;;9.96;36.67
48624;BME280;34422;45.802;16.114;2023-04-06T07:56:14;100610.31;;;10.14;36.10
48624;BME280;34422;45.802;16.114;2023-04-06T07:58:41;100622.66;;;11.10;34.64
48624;BME280;34422;45.802;16.114;2023-04-06T08:01:08;100616.00;;;10.99;34.19
48624;BME280;34422;45.802;16.114;2023-04-06T08:03:35;100615.28;;;10.58;35.17
48624;BME280;34422;45.802;16.114;2023-04-06T08:06:02;100608.72;;;11.20;34.45
48624;BME280;34422;45.802;16.114;2023-04-06T08:08:29;100610.28;;;10.55;34.43
48624;BME280;34422;45.802;16.114;2023-04-06T08:10:57;100603.19;;;10.54;35.37
48624;BME280;34422;45.802;16.114;2023-04-06T08:13:24;100609.53;;;11.00;34.01
48624;BME280;34422;45.802;16.114;2023-04-06T08:15:51;100594.06;;;10.68;34.23
48624;BME280;34422;45.802;16.114;2023-04-06T08:18:18;100607.03;;;11.38;34.73
48624;BME280;34422;45.802;16.114;2023-04-06T08:20:45;100598.47;;;11.48;33.89
48624;BME280;34422;45.802;16.114;2023-04-06T08:23:11;100599.09;;;10.71;34.53
48624;BME280;34422;45.802;16.114;2023-04-06T08:25:38;100603.53;;;9.90;35.29
48624;BME280;34422;45.802;16.114;2023-04-06T08:28:05;100598.03;;;10.72;35.47
48624;BME280;34422;45.802;16.114;2023-04-06T08:30:32;100590.25;;;10.36;34.53
48624;BME280;34422;45.802;16.114;2023-04-06T08:32:59;100593.53;;;9.49;36.11
48624;BME280;34422;45.802;16.114;2023-04-06T08:35:26;100595.78;;;9.46;35.71
48624;BME280;34422;45.802;16.114;2023-04-06T08:37:53;100589.47;;;10.49;35.36
48624;BME280;34422;45.802;16.114;2023-04-06T08:40:20;100588.84;;;10.47;34.52
48624;BME280;34422;45.802;16.114;2023-04-06T08:42:54;100584.94;;;11.09;33.83
48624;BME280;34422;45.802;16.114;2023-04-06T08:45:21;100579.47;;;11.74;33.64
48624;BME280;34422;45.802;16.114;2023-04-06T08:47:50;100583.13;;;12.13;33.05
48624;BME280;34422;45.802;16.114;2023-04-06T08:50:17;100581.19;;;10.96;33.73
48624;BME280;34422;45.802;16.114;2023-04-06T08:52:48;100571.66;;;11.20;33.56
48624;BME280;34422;45.802;16.114;2023-04-06T08:55:15;100566.81;;;11.35;33.07
48624;BME280;34422;45.802;16.114;2023-04-06T08:57:42;100574.00;;;10.29;34.02
48624;BME280;34422;45.802;16.114;2023-04-06T09:00:10;100563.22;;;11.81;33.45
48624;BME280;34422;45.802;16.114;2023-04-06T09:02:39;100567.25;;;11.26;33.22
48624;BME280;34422;45.802;16.114;2023-04-06T09:05:08;100566.19;;;10.81;33.38
48624;BME280;34422;45.802;16.114;2023-04-06T09:07:38;100548.59;;;11.89;32.00
48624;BME280;34422;45.802;16.114;2023-04-06T09:10:06;100547.06;;;11.15;32.78
48624;BME280;34422;45.802;16.114;2023-04-06T09:12:34;100552.88;;;10.99;31.45
48624;BME280;34422;45.802;16.114;2023-04-06T09:15:01;100537.81;;;10.24;33.03
48624;BME280;34422;45.802;16.114;2023-04-06T09:17:30;100553.91;;;10.04;32.62
48624;BME280;34422;45.802;16.114;2023-04-06T09:20:00;100546.34;;;9.80;33.62
48624;BME280;34422;45.802;16.114;2023-04-06T09:22:40;100549.19;;;9.72;32.84
48624;BME280;34422;45.802;16.114;2023-04-06T09:25:09;100546.66;;;9.63;34.41
48624;BME280;34422;45.802;16.114;2023-04-06T09:27:37;100545.06;;;9.76;34.75
48624;BME280;34422;45.802;16.114;2023-04-06T09:30:14;100536.38;;;9.87;33.74
48624;BME280;34422;45.802;16.114;2023-04-06T09:32:55;100524.81;;;10.06;34.19
48624;BME280;34422;45.802;16.114;2023-04-06T09:35:23;100523.16;;;10.12;34.12
48624;BME280;34422;45.802;16.114;2023-04-06T09:37:51;100519.94;;;10.43;34.32
48624;BME280;34422;45.802;16.114;2023-04-06T09:40:18;100528.31;;;10.87;34.39
48624;BME280;34422;45.802;16.114;2023-04-06T09:42:46;100515.25;;;10.10;34.57
48624;BME280;34422;45.802;16.114;2023-04-06T09:45:14;100520.16;;;9.87;34.73
48624;BME280;34422;45.802;16.114;2023-04-06T09:47:45;100509.38;;;10.00;36.84
48624;BME280;34422;45.802;16.114;2023-04-06T09:50:12;100509.38;;;10.00;35.62
48624;BME280;34422;45.802;16.114;2023-04-06T09:52:46;100511.06;;;10.01;35.38
48624;BME280;34422;45.802;16.114;2023-04-06T09:55:36;100513.16;;;10.12;34.73
48624;BME280;34422;45.802;16.114;2023-04-06T09:58:12;100507.81;;;9.65;34.61
48624;BME280;34422;45.802;16.114;2023-04-06T10:03:45;100509.78;;;9.90;33.05
48624;BME280;34422;45.802;16.114;2023-04-06T10:06:13;100497.00;;;9.65;31.78
48624;BME280;34422;45.802;16.114;2023-04-06T10:08:42;100494.94;;;10.21;31.97
48624;BME280;34422;45.802;16.114;2023-04-06T10:11:12;100498.28;;;10.29;31.86
48624;BME280;34422;45.802;16.114;2023-04-06T10:13:39;100500.28;;;10.14;30.95
48624;BME280;34422;45.802;16.114;2023-04-06T10:16:07;100490.16;;;10.23;30.55
48624;BME280;34422;45.802;16.114;2023-04-06T10:18:34;100473.31;;;10.54;32.03
48624;BME280;34422;45.802;16.114;2023-04-06T10:21:20;100480.00;;;10.84;31.57
48624;BME280;34422;45.802;16.114;2023-04-06T10:24:01;100475.41;;;11.04;32.11
48624;BME280;34422;45.802;16.114;2023-04-06T10:26:28;100471.59;;;11.25;31.21
48624;BME280;34422;45.802;16.114;2023-04-06T10:29:02;100455.09;;;11.40;33.93
48624;BME280;34422;45.802;16.114;2023-04-06T10:31:29;100479.38;;;10.62;31.37
48624;BME280;34422;45.802;16.114;2023-04-06T10:34:00;100471.66;;;10.46;31.35
48624;BME280;34422;45.802;16.114;2023-04-06T10:36:31;100460.84;;;10.46;31.04
48624;BME280;34422;45.802;16.114;2023-04-06T10:39:01;100468.63;;;10.02;31.87
48624;BME280;34422;45.802;16.114;2023-04-06T10:41:45;100464.16;;;10.22;32.07
48624;BME280;34422;45.802;16.114;2023-04-06T10:44:22;100471.25;;;10.56;30.41
48624;BME280;34422;45.802;16.114;2023-04-06T10:46:56;100450.63;;;10.42;31.95
48624;BME280;34422;45.802;16.114;2023-04-06T10:49:24;100455.00;;;10.56;31.64
48624;BME280;34422;45.802;16.114;2023-04-06T10:51:54;100447.09;;;10.67;29.77
48624;BME280;34422;45.802;16.114;2023-04-06T10:54:23;100449.13;;;11.12;30.92
48624;BME280;34422;45.802;16.114;2023-04-06T10:56:50;100437.47;;;11.18;30.20
48624;BME280;34422;45.802;16.114;2023-04-06T10:59:21;100439.56;;;11.02;30.25
48624;BME280;34422;45.802;16.114;2023-04-06T11:01:48;100439.19;;;10.53;29.64
48624;BME280;34422;45.802;16.114;2023-04-06T11:04:16;100432.09;;;10.91;30.34
48624;BME280;34422;45.802;16.114;2023-04-06T11:06:47;100426.19;;;11.27;30.03
48624;BME280;34422;45.802;16.114;2023-04-06T11:09:26;100439.56;;;11.02;28.58
48624;BME280;34422;45.802;16.114;2023-04-06T11:11:53;100426.88;;;10.96;28.58
48624;BME280;34422;45.802;16.114;2023-04-06T11:14:20;100430.44;;;10.90;31.43
48624;BME280;34422;45.802;16.114;2023-04-06T11:16:47;100415.53;;;11.32;32.53
48624;BME280;34422;45.802;16.114;2023-04-06T11:19:17;100416.91;;;11.48;29.89
48624;BME280;34422;45.802;16.114;2023-04-06T11:21:47;100401.91;;;11.52;30.14
48624;BME280;34422;45.802;16.114;2023-04-06T11:24:20;100423.69;;;11.26;29.44
48624;BME280;34422;45.802;16.114;2023-04-06T11:26:53;100421.03;;;11.06;29.34
48624;BME280;34422;45.802;16.114;2023-04-06T11:29:22;100408.31;;;11.13;28.55
48624;BME280;34422;45.802;16.114;2023-04-06T11:31:51;100403.88;;;11.32;30.13
48624;BME280;34422;45.802;16.114;2023-04-06T11:34:20;100405.34;;;11.21;30.76
48624;BME280;34422;45.802;16.114;2023-04-06T11:36:49;100395.75;;;11.32;29.73
48624;BME280;34422;45.802;16.114;2023-04-06T11:39:23;100388.19;;;11.40;30.22
48624;BME280;34422;45.802;16.114;2023-04-06T11:41:51;100384.50;;;11.22;29.02
48624;BME280;34422;45.802;16.114;2023-04-06T11:44:38;100373.56;;;11.48;30.10
48624;BME280;34422;45.802;16.114;2023-04-06T11:47:07;100386.78;;;11.31;29.74
48624;BME280;34422;45.802;16.114;2023-04-06T11:49:39;100376.72;;;11.45;30.63
48624;BME280;34422;45.802;16.114;2023-04-06T11:52:24;100388.88;;;11.29;29.22
48624;BME280;34422;45.802;16.114;2023-04-06T11:54:52;100371.22;;;11.14;29.78
48624;BME280;34422;45.802;16.114;2023-04-06T11:57:21;100365.38;;;11.17;29.34
48624;BME280;34422;45.802;16.114;2023-04-06T11:59:51;100366.59;;;11.21;29.57
48624;BME280;34422;45.802;16.114;2023-04-06T12:02:18;100369.59;;;10.99;30.57
48624;BME280;34422;45.802;16.114;2023-04-06T12:04:45;100366.88;;;10.99;30.13
48624;BME280;34422;45.802;16.114;2023-04-06T12:07:12;100358.66;;;11.32;30.33
48624;BME280;34422;45.802;16.114;2023-04-06T12:09:39;100357.63;;;11.71;30.89
48624;BME280;34422;45.802;16.114;2023-04-06T12:12:06;100349.59;;;11.90;30.15
48624;BME280;34422;45.802;16.114;2023-04-06T12:14:33;100343.53;;;11.56;30.80
48624;BME280;34422;45.802;16.114;2023-04-06T12:17:00;100342.47;;;11.95;29.57
48624;BME280;34422;45.802;16.114;2023-04-06T12:19:26;100341.97;;;11.73;29.19
48624;BME280;34422;45.802;16.114;2023-04-06T12:21:53;100323.31;;;11.08;29.96
48624;BME280;34422;45.802;16.114;2023-04-06T12:24:24;100335.59;;;11.55;29.52
48624;BME280;34422;45.802;16.114;2023-04-06T12:26:50;100334.78;;;11.54;29.93
48624;BME280;34422;45.802;16.114;2023-04-06T12:29:17;100335.41;;;11.50;30.00
48624;BME280;34422;45.802;16.114;2023-04-06T12:31:44;100327.59;;;11.73;30.33
48624;BME280;34422;45.802;16.114;2023-04-06T12:34:11;100325.16;;;12.21;31.16
48624;BME280;34422;45.802;16.114;2023-04-06T12:36:38;100322.94;;;12.36;29.10
48624;BME280;34422;45.802;16.114;2023-04-06T12:39:05;100303.13;;;11.48;30.20
48624;BME280;34422;45.802;16.114;2023-04-06T12:41:32;100316.69;;;12.11;31.11
48624;BME280;34422;45.802;16.114;2023-04-06T12:43:59;100310.81;;;12.14;30.99
48624;BME280;34422;45.802;16.114;2023-04-06T12:46:26;100319.84;;;12.08;30.09
48624;BME280;34422;45.802;16.114;2023-04-06T12:48:53;100317.91;;;12.15;30.66